Time;durP1;ratioP1;P1;durP2;ratioP2;P2;SDS_P1;SDS_P2;PMS_P1;PMS_P2;Temp;Humidity;BMP_temperature;BMP_pressure;BME280_temperature;BME280_humidity;BME280_pressure;Samples;Min_cycle;Max_cycle;Signal;HPM_P1;HPM_P2
2021/01/01 00:01:43;;;;;;;23.95;13.05;;;;;;;3.12;60.50;100074.97;8035161;28;20430;-69
2021/01/01 00:05:34;;;;;;;23.13;11.98;;;;;;;3.10;60.12;100077.66;8038048;28;20663;-68
2021/01/01 00:09:25;;;;;;;18.60;11.35;;;;;;;3.11;60.24;100081.09;8037727;28;20050;-68
2021/01/01 00:13:17;;;;;;;23.83;14.43;;;;;;;3.11;60.29;100088.88;8038116;28;20507;-68
2021/01/01 00:17:07;;;;;;;23.48;13.40;;;;;;;3.12;60.50;100087.94;8036885;28;20040;-68
2021/01/01 00:20:58;;;;;;;28.67;15.05;;;;;;;3.11;60.18;100099.25;8038029;28;20044;-62
2021/01/01 00:24:48;;;;;;;24.88;14.50;;;;;;;3.07;60.17;100097.72;8038044;28;20037;-61
2021/01/01 00:28:43;;;;;;;23.10;14.23;;;;;;;3.08;60.09;100100.22;8037187;28;20039;-62
2021/01/01 00:32:34;;;;;;;24.17;13.27;;;;;;;3.07;60.20;100098.56;8036841;28;20050;-62
2021/01/01 00:36:25;;;;;;;23.40;12.15;;;;;;;3.07;60.11;100102.91;8037813;28;20058;-60
2021/01/01 00:40:15;;;;;;;24.98;12.98;;;;;;;3.05;60.29;100102.13;8042230;28;20031;-62
2021/01/01 00:44:06;;;;;;;17.60;11.13;;;;;;;3.04;60.11;100093.50;8069602;28;20038;-62
2021/01/01 00:47:57;;;;;;;17.20;11.38;;;;;;;3.02;60.51;100097.09;8091670;28;20573;-60
2021/01/01 00:51:47;;;;;;;18.63;10.55;;;;;;;2.99;60.35;100090.31;8101367;28;20035;-60
2021/01/01 00:55:38;;;;;;;17.83;10.45;;;;;;;2.98;60.11;100087.75;8101676;28;20101;-61
2021/01/01 00:59:28;;;;;;;20.00;11.73;;;;;;;2.95;59.99;100100.91;8101860;28;20417;-62
2021/01/01 01:03:19;;;;;;;18.20;10.00;;;;;;;2.93;60.13;100106.13;8062672;28;20043;-62
2021/01/01 01:07:10;;;;;;;16.98;10.32;;;;;;;2.93;59.94;100110.47;8049607;28;20042;-62
2021/01/01 01:11:00;;;;;;;15.88;9.07;;;;;;;2.93;60.27;100110.47;8068717;28;20097;-61
2021/01/01 01:14:51;;;;;;;18.75;11.27;;;;;;;2.91;60.40;100109.72;8068913;28;20114;-62
2021/01/01 01:18:41;;;;;;;17.77;10.75;;;;;;;2.89;59.91;100114.97;8067521;28;20097;-62
2021/01/01 01:22:32;;;;;;;18.52;10.23;;;;;;;2.91;60.43;100126.09;8068950;28;20036;-62
2021/01/01 01:26:23;;;;;;;18.45;10.88;;;;;;;2.90;60.09;100121.84;8069050;28;20112;-60
2021/01/01 01:30:14;;;;;;;18.60;10.57;;;;;;;2.90;60.39;100124.44;8067615;28;20101;-62
2021/01/01 01:34:05;;;;;;;17.35;10.40;;;;;;;2.91;60.31;100126.09;8044455;28;20040;-62
2021/01/01 01:37:56;;;;;;;15.07;9.52;;;;;;;2.91;60.12;100125.28;8037129;28;20403;-61
2021/01/01 01:41:46;;;;;;;14.43;8.73;;;;;;;2.91;59.95;100140.88;8074396;28;20684;-62
2021/01/01 01:45:37;;;;;;;16.15;9.45;;;;;;;2.90;59.93;100137.41;8105031;27;20035;-60
2021/01/01 01:49:28;;;;;;;15.25;9.15;;;;;;;2.89;60.47;100130.53;8106473;28;20035;-62
2021/01/01 01:53:20;;;;;;;14.48;8.95;;;;;;;2.88;60.34;100137.47;8106698;28;20032;-60
2021/01/01 01:57:11;;;;;;;16.55;9.88;;;;;;;2.87;60.40;100135.78;8106327;28;20472;-60
2021/01/01 02:01:04;;;;;;;13.63;8.80;;;;;;;2.86;60.00;100144.50;8104753;28;20032;-62
2021/01/01 02:04:54;;;;;;;15.35;9.68;;;;;;;2.86;59.55;100138.47;8042078;28;20082;-62
2021/01/01 02:08:45;;;;;;;14.30;8.63;;;;;;;2.83;59.79;100144.63;8039439;28;20036;-62
2021/01/01 02:12:35;;;;;;;16.05;9.45;;;;;;;2.83;59.70;100156.75;8041514;28;20506;-61
2021/01/01 02:16:26;;;;;;;13.18;8.75;;;;;;;2.82;60.00;100163.72;8040434;28;20040;-61
2021/01/01 02:20:17;;;;;;;13.80;8.63;;;;;;;2.81;60.35;100162.03;8041324;28;20055;-61
2021/01/01 02:24:09;;;;;;;14.75;8.45;;;;;;;2.81;59.74;100169.81;8041185;28;20545;-60
2021/01/01 02:28:00;;;;;;;13.52;9.23;;;;;;;2.79;60.10;100176.81;8041291;28;20033;-62
2021/01/01 02:31:51;;;;;;;15.75;9.48;;;;;;;2.78;59.66;100169.09;8040744;28;20097;-62
2021/01/01 02:35:42;;;;;;;15.18;9.10;;;;;;;2.77;59.81;100175.19;8040198;28;20040;-61
2021/01/01 02:39:33;;;;;;;16.80;9.27;;;;;;;2.77;59.79;100180.38;8040555;28;20032;-63
2021/01/01 02:43:23;;;;;;;16.27;8.73;;;;;;;2.76;59.68;100176.94;8101541;28;20115;-62
2021/01/01 02:47:16;;;;;;;13.43;8.63;;;;;;;2.75;59.86;100185.63;8103704;28;20036;-60
2021/01/01 02:51:06;;;;;;;16.63;9.70;;;;;;;2.75;59.93;100182.19;8104394;28;20032;-62
2021/01/01 02:54:58;;;;;;;15.88;9.82;;;;;;;2.74;59.91;100185.72;8104551;28;20031;-62
2021/01/01 02:58:49;;;;;;;13.35;8.65;;;;;;;2.71;60.11;100173.72;8062268;28;20716;-62
2021/01/01 03:02:39;;;;;;;12.40;8.68;;;;;;;2.72;60.37;100182.34;8038245;28;20056;-61
2021/01/01 03:06:30;;;;;;;13.55;8.57;;;;;;;2.68;60.12;100184.22;8039790;28;20041;-62
2021/01/01 03:10:21;;;;;;;12.60;8.60;;;;;;;2.70;59.78;100187.59;8039425;28;20086;-61
2021/01/01 03:14:12;;;;;;;14.75;8.65;;;;;;;2.71;59.89;100188.44;8040091;28;20040;-62
2021/01/01 03:18:03;;;;;;;15.95;9.55;;;;;;;2.70;59.77;100190.19;8037861;28;20047;-59
2021/01/01 03:21:53;;;;;;;13.00;8.85;;;;;;;2.71;59.73;100181.50;8039724;28;20045;-62
2021/01/01 03:25:44;;;;;;;12.98;8.07;;;;;;;2.72;59.92;100195.31;8039141;28;20089;-62
2021/01/01 03:29:34;;;;;;;15.55;9.10;;;;;;;2.74;60.10;100202.09;8037211;28;20050;-62
2021/01/01 03:33:25;;;;;;;14.70;8.55;;;;;;;2.74;59.89;100196.09;8037645;28;20040;-62
2021/01/01 03:37:16;;;;;;;19.13;9.82;;;;;;;2.75;59.86;100201.19;8038979;28;20472;-62
2021/01/01 03:41:07;;;;;;;14.80;9.15;;;;;;;2.75;60.32;100197.75;8062733;28;20055;-61
2021/01/01 03:44:58;;;;;;;20.55;10.63;;;;;;;2.76;59.89;100189.06;8103294;28;20024;-62
2021/01/01 03:48:48;;;;;;;19.60;10.32;;;;;;;2.75;59.76;100198.59;8101493;28;20044;-62
2021/01/01 03:52:39;;;;;;;16.80;10.02;;;;;;;2.75;59.86;100193.41;8102863;28;20073;-62
2021/01/01 03:56:30;;;;;;;19.17;11.35;;;;;;;2.66;59.91;100182.63;8103133;28;20034;-61
2021/01/01 04:00:22;;;;;;;20.05;10.73;;;;;;;2.75;59.83;100193.41;8100979;28;20083;-61
2021/01/01 04:04:13;;;;;;;17.17;10.63;;;;;;;2.77;60.46;100195.94;8047779;28;20056;-62
2021/01/01 04:08:05;;;;;;;17.45;10.20;;;;;;;2.77;59.81;100196.78;8038592;28;20124;-62
2021/01/01 04:11:55;;;;;;;16.35;9.82;;;;;;;2.76;59.94;100195.09;8037390;28;20044;-63
2021/01/01 04:15:46;;;;;;;16.25;9.70;;;;;;;2.78;60.26;100192.47;8036706;28;20078;-60
2021/01/01 04:19:37;;;;;;;18.45;11.00;;;;;;;2.78;60.11;100200.25;8037759;28;20419;-62
2021/01/01 04:23:27;;;;;;;16.88;11.07;;;;;;;2.77;60.05;100203.72;8038163;28;20030;-63
2021/01/01 04:27:18;;;;;;;19.90;12.23;;;;;;;2.77;60.00;100201.97;8037799;28;20588;-62
2021/01/01 04:31:08;;;;;;;22.70;12.10;;;;;;;2.77;59.98;100198.53;8037582;28;20416;-62
2021/01/01 04:34:59;;;;;;;20.67;12.75;;;;;;;2.76;60.37;100200.28;8042404;28;20059;-62
2021/01/01 04:38:49;;;;;;;20.40;12.23;;;;;;;2.75;60.54;100206.38;8037800;28;20040;-62
2021/01/01 04:42:40;;;;;;;25.35;13.90;;;;;;;2.74;60.36;100211.66;8087468;28;20051;-61
2021/01/01 04:46:31;;;;;;;19.95;12.27;;;;;;;2.71;60.32;100201.41;8100267;28;20042;-62
2021/01/01 04:50:22;;;;;;;24.77;14.52;;;;;;;2.72;60.13;100216.91;8101449;28;20059;-62
2021/01/01 04:54:16;;;;;;;20.67;12.90;;;;;;;2.66;60.22;100200.78;8102091;28;20496;-60
2021/01/01 04:58:07;;;;;;;22.00;13.90;;;;;;;2.68;60.31;100210.16;8064358;28;20111;-61
2021/01/01 05:01:57;;;;;;;23.48;13.95;;;;;;;2.67;60.14;100215.41;8035851;28;20508;-62
2021/01/01 05:05:49;;;;;;;23.17;13.38;;;;;;;2.65;60.26;100219.84;8037154;28;20039;-62
2021/01/01 05:09:41;;;;;;;27.52;13.05;;;;;;;2.62;59.91;100220.78;8037040;28;20028;-60
2021/01/01 05:13:32;;;;;;;27.17;14.15;;;;;;;2.60;59.84;100222.63;8037330;28;20044;-61
2021/01/01 05:17:34;;;;;;;22.90;13.88;;;;;;;2.58;60.01;100224.44;8039538;28;20048;-62
2021/01/01 05:21:28;;;;;;;22.50;13.95;;;;;;;2.55;60.12;100224.56;8042823;28;20074;-62
2021/01/01 05:25:19;;;;;;;23.27;13.88;;;;;;;2.53;59.75;100223.81;8043102;28;20035;-62
2021/01/01 05:29:12;;;;;;;23.48;13.07;;;;;;;2.53;59.99;100222.97;8042571;28;20051;-60
2021/01/01 05:33:03;;;;;;;30.10;14.52;;;;;;;2.53;59.90;100239.38;8045155;28;20044;-61
2021/01/01 05:36:54;;;;;;;24.23;14.45;;;;;;;2.52;60.38;100239.41;8042671;28;20086;-62
2021/01/01 05:40:48;;;;;;;21.60;14.23;;;;;;;2.52;59.94;100248.03;8059787;28;20043;-63
2021/01/01 05:44:38;;;;;;;25.90;14.32;;;;;;;2.53;60.21;100252.34;8107589;28;20031;-61
2021/01/01 05:48:29;;;;;;;25.77;14.75;;;;;;;2.52;60.20;100245.44;8105902;28;20039;-62
2021/01/01 05:52:22;;;;;;;23.60;14.65;;;;;;;2.53;59.95;100246.28;8107141;28;20031;-62
2021/01/01 05:56:13;;;;;;;23.92;14.63;;;;;;;2.54;60.24;100255.75;8107268;28;20035;-61
2021/01/01 06:00:08;;;;;;;23.58;13.88;;;;;;;2.55;60.28;100260.88;8106515;27;20596;-60
2021/01/01 06:04:00;;;;;;;22.55;12.70;;;;;;;2.54;60.32;100266.94;8056852;28;20416;-63
2021/01/01 06:07:53;;;;;;;22.67;13.93;;;;;;;2.47;60.21;100256.91;8042138;28;20115;-63
2021/01/01 06:11:57;;;;;;;21.35;13.32;;;;;;;2.53;60.29;100274.81;8041839;28;20044;-62
2021/01/01 06:15:57;;;;;;;22.50;13.57;;;;;;;2.52;59.97;100279.16;8040965;28;20064;-63
2021/01/01 06:19:53;;;;;;;20.40;13.57;;;;;;;2.50;60.31;100280.09;8041550;28;20041;-62
2021/01/01 06:23:44;;;;;;;26.10;14.30;;;;;;;2.49;60.48;100288.81;8041710;28;20560;-62
2021/01/01 06:27:35;;;;;;;24.70;14.20;;;;;;;2.49;60.01;100286.22;8041183;28;20447;-62
2021/01/01 06:31:26;;;;;;;26.52;14.68;;;;;;;2.49;60.02;100302.63;8040028;28;20053;-62
2021/01/01 06:35:26;;;;;;;26.05;15.32;;;;;;;2.48;60.31;100306.13;8042332;28;20040;-61
2021/01/01 06:39:35;;;;;;;27.35;15.45;;;;;;;2.48;59.80;100307.88;8041299;28;20056;-62
2021/01/01 06:43:50;;;;;;;24.98;14.75;;;;;;;2.46;60.15;100309.66;8103887;28;20043;-62
2021/01/01 06:47:40;;;;;;;21.83;13.90;;;;;;;2.45;60.25;100321.81;8104432;28;20048;-62
2021/01/01 06:51:31;;;;;;;20.52;13.23;;;;;;;2.45;59.91;100323.56;8105256;28;20054;-62
2021/01/01 06:55:30;;;;;;;27.88;16.55;;;;;;;2.43;60.18;100326.19;8046078;28;20062;-61
2021/01/01 06:59:20;;;;;;;24.35;15.02;;;;;;;2.42;59.39;100329.69;8040082;28;20618;-63
2021/01/01 07:03:26;;;;;;;26.50;16.02;;;;;;;2.40;60.23;100327.19;8038944;28;20557;-63
2021/01/01 07:07:40;;;;;;;29.38;17.30;;;;;;;2.34;60.16;100329.16;8040183;28;20032;-64
2021/01/01 07:11:31;;;;;;;26.77;16.35;;;;;;;2.36;59.92;100335.13;8039543;28;20569;-61
2021/01/01 07:15:33;;;;;;;33.13;15.80;;;;;;;2.35;60.42;100347.25;8038784;28;20048;-62
2021/01/01 07:19:24;;;;;;;27.92;15.90;;;;;;;2.36;59.59;100345.50;8039507;28;20036;-65
2021/01/01 07:23:15;;;;;;;28.35;16.00;;;;;;;2.34;60.40;100347.31;8039455;28;20032;-62
2021/01/01 07:27:06;;;;;;;30.63;17.15;;;;;;;2.33;60.15;100348.19;8039669;28;20089;-62
2021/01/01 07:30:58;;;;;;;32.80;18.50;;;;;;;2.32;60.06;100354.31;8037868;28;20029;-63
2021/01/01 07:34:51;;;;;;;32.10;18.65;;;;;;;2.29;60.26;100350.06;8040186;28;20040;-62
2021/01/01 07:38:44;;;;;;;29.60;17.90;;;;;;;2.29;60.36;100360.44;8038221;28;20040;-62
2021/01/01 07:42:49;;;;;;;29.33;17.83;;;;;;;2.27;60.03;100356.25;8086651;28;20032;-62
2021/01/01 07:46:40;;;;;;;33.83;19.13;;;;;;;2.26;59.80;100364.91;8102249;28;20039;-62
2021/01/01 07:50:31;;;;;;;31.30;17.83;;;;;;;2.25;59.72;100366.66;8102398;28;20100;-62
2021/01/01 07:54:22;;;;;;;27.92;17.67;;;;;;;2.23;59.99;100365.88;8102813;28;20544;-65
2021/01/01 07:58:14;;;;;;;34.28;18.42;;;;;;;2.25;59.65;100373.59;8102650;28;20040;-62
2021/01/01 08:02:07;;;;;;;30.60;18.70;;;;;;;2.25;60.47;100376.19;8092973;28;20051;-62
2021/01/01 08:05:59;;;;;;;29.38;18.08;;;;;;;2.24;59.95;100369.34;8070484;28;20803;-68
2021/01/01 08:09:49;;;;;;;39.00;19.88;;;;;;;2.23;60.29;100373.66;8069958;28;20048;-64
2021/01/01 08:13:40;;;;;;;31.85;18.33;;;;;;;2.26;60.09;100381.31;8070417;28;20035;-62
2021/01/01 08:17:31;;;;;;;32.72;18.17;;;;;;;2.26;60.43;100383.91;8069100;28;20048;-62
2021/01/01 08:21:22;;;;;;;28.60;15.90;;;;;;;2.28;60.33;100382.13;8069670;28;20028;-62
2021/01/01 08:25:13;;;;;;;32.10;18.15;;;;;;;2.23;60.19;100367.63;8070194;28;20114;-63
2021/01/01 08:29:11;;;;;;;30.17;17.25;;;;;;;2.31;60.24;100383.72;8068635;28;20042;-64
2021/01/01 08:33:04;;;;;;;31.80;16.92;;;;;;;2.30;60.05;100387.22;8055863;28;20040;-62
2021/01/01 08:36:55;;;;;;;29.38;16.90;;;;;;;2.35;60.29;100395.66;8061543;28;20032;-62
2021/01/01 08:40:53;;;;;;;30.90;16.17;;;;;;;2.37;59.96;100392.09;8059340;28;20028;-62
2021/01/01 08:44:45;;;;;;;29.17;16.17;;;;;;;2.42;60.47;100403.13;8054884;28;20039;-62
2021/01/01 08:48:36;;;;;;;22.02;14.02;;;;;;;2.44;60.71;100408.25;8048650;28;20133;-61
2021/01/01 08:52:28;;;;;;;26.05;15.30;;;;;;;2.47;60.58;100407.28;8059942;28;20496;-62
2021/01/01 08:56:18;;;;;;;26.45;15.10;;;;;;;2.49;60.61;100406.34;8060691;28;20056;-64
2021/01/01 09:00:10;;;;;;;24.73;14.38;;;;;;;2.52;60.93;100407.94;8046236;28;20484;-62
2021/01/01 09:04:02;;;;;;;29.52;15.82;;;;;;;2.56;60.52;100414.69;8054097;28;20032;-62
2021/01/01 09:08:25;;;;;;;25.25;16.10;;;;;;;2.57;60.77;100417.25;8071612;28;20040;-62
2021/01/01 09:12:16;;;;;;;26.75;15.35;;;;;;;2.62;60.86;100420.47;8028723;28;20063;-62
2021/01/01 09:16:09;;;;;;;31.90;15.05;;;;;;;2.66;60.49;100424.63;8052582;28;20045;-62
2021/01/01 09:20:10;;;;;;;31.02;17.40;;;;;;;2.68;60.70;100419.41;8062332;28;20036;-62
2021/01/01 09:24:00;;;;;;;23.38;14.13;;;;;;;2.74;60.65;100421.75;8061490;28;20399;-69
2021/01/01 09:27:52;;;;;;;21.90;13.57;;;;;;;2.78;60.65;100431.94;8046154;28;20530;-63
2021/01/01 09:31:44;;;;;;;28.58;15.13;;;;;;;2.75;60.71;100419.06;8042640;28;20435;-62
2021/01/01 09:35:35;;;;;;;23.48;13.88;;;;;;;2.85;60.44;100433.38;8066389;28;20117;-62
2021/01/01 09:39:26;;;;;;;25.55;14.88;;;;;;;2.89;60.99;100432.34;8074410;28;20044;-63
2021/01/01 09:43:16;;;;;;;25.88;13.20;;;;;;;2.96;60.71;100434.66;8076054;28;20030;-65
2021/01/01 09:47:07;;;;;;;23.27;13.70;;;;;;;3.03;60.72;100439.56;8047582;28;20046;-63
2021/01/01 09:50:57;;;;;;;27.00;13.93;;;;;;;3.08;60.83;100437.59;8073102;28;20036;-63
2021/01/01 09:54:48;;;;;;;24.85;14.32;;;;;;;3.15;61.11;100438.19;8053380;28;20033;-63
2021/01/01 09:58:39;;;;;;;23.55;13.15;;;;;;;3.19;60.71;100439.75;8057280;28;20040;-63
2021/01/01 10:02:30;;;;;;;23.33;13.07;;;;;;;3.27;61.19;100443.72;8056728;28;20890;-62
2021/01/01 10:06:21;;;;;;;22.73;14.18;;;;;;;3.32;60.84;100449.56;8057949;28;20081;-63
2021/01/01 10:10:12;;;;;;;25.10;13.90;;;;;;;3.40;60.92;100449.25;8056924;28;20044;-63
2021/01/01 10:14:02;;;;;;;22.52;13.05;;;;;;;3.46;61.03;100443.78;8056684;28;20059;-63
2021/01/01 10:17:53;;;;;;;23.67;13.43;;;;;;;3.51;61.17;100448.78;8051179;28;20091;-63
2021/01/01 10:21:47;;;;;;;22.80;12.52;;;;;;;3.56;60.73;100452.88;8070156;28;20035;-62
2021/01/01 10:25:37;;;;;;;22.58;12.75;;;;;;;3.62;61.51;100459.53;8073742;28;20024;-63
2021/01/01 10:29:28;;;;;;;20.92;12.60;;;;;;;3.66;61.04;100453.28;8072987;28;20117;-63
2021/01/01 10:33:19;;;;;;;21.00;12.20;;;;;;;3.70;60.96;100458.28;8054710;28;20071;-63
2021/01/01 10:37:12;;;;;;;18.80;11.18;;;;;;;3.76;61.06;100457.19;8041195;28;20507;-63
2021/01/01 10:41:04;;;;;;;20.83;12.65;;;;;;;3.84;61.09;100456.84;8063501;28;20079;-62
2021/01/01 10:44:54;;;;;;;22.95;12.35;;;;;;;3.91;61.07;100459.09;8105142;28;20036;-62
2021/01/01 10:48:45;;;;;;;20.05;12.52;;;;;;;3.99;61.20;100459.59;8102169;27;20440;-62
2021/01/01 10:52:36;;;;;;;21.55;11.25;;;;;;;4.05;61.08;100458.47;8103763;28;20036;-62
2021/01/01 10:56:28;;;;;;;18.42;11.60;;;;;;;4.12;61.20;100460.72;8105025;28;20109;-63
2021/01/01 11:00:19;;;;;;;23.02;12.73;;;;;;;4.18;60.98;100457.84;8104741;28;20070;-62
2021/01/01 11:04:09;;;;;;;21.90;11.82;;;;;;;4.25;61.14;100458.41;8051538;28;20044;-63
2021/01/01 11:08:00;;;;;;;23.23;11.55;;;;;;;4.32;60.92;100464.19;8040239;28;20058;-62
2021/01/01 11:11:54;;;;;;;21.38;11.77;;;;;;;4.39;60.95;100460.38;8053812;28;20040;-63
2021/01/01 12:26:08;;;;;;;16.05;9.25;;;;;;;4.87;60.36;100447.59;8069486;28;20027;-62
2021/01/01 12:29:59;;;;;;;16.80;9.32;;;;;;;4.88;60.34;100441.50;8069826;28;20088;-62
2021/01/01 12:33:50;;;;;;;17.13;8.80;;;;;;;4.91;60.38;100448.28;8047278;28;20044;-62
2021/01/01 12:37:41;;;;;;;15.10;9.57;;;;;;;4.90;60.28;100452.66;8052495;28;20056;-62
2021/01/01 12:41:32;;;;;;;17.00;8.77;;;;;;;4.91;60.09;100443.09;8071074;28;20112;-62
2021/01/01 12:45:23;;;;;;;16.10;9.77;;;;;;;4.90;60.10;100454.41;8101428;28;20547;-62
2021/01/01 12:49:13;;;;;;;13.68;8.70;;;;;;;4.82;59.96;100439.16;8101444;28;20132;-62
2021/01/01 12:53:04;;;;;;;13.13;8.88;;;;;;;4.88;59.89;100449.31;8082464;28;20040;-63
2021/01/01 12:56:55;;;;;;;21.23;9.65;;;;;;;4.86;59.80;100451.13;8051390;28;20515;-62
2021/01/01 13:00:45;;;;;;;14.60;9.05;;;;;;;4.85;59.91;100453.81;8043957;28;20441;-62
2021/01/01 13:04:36;;;;;;;15.02;8.90;;;;;;;4.84;59.72;100449.53;8057081;28;20036;-62
2021/01/01 13:08:27;;;;;;;12.52;8.20;;;;;;;4.80;59.84;100448.84;8069630;28;20051;-63
2021/01/01 13:12:17;;;;;;;13.77;8.77;;;;;;;4.79;59.70;100449.75;8068188;28;20036;-62
2021/01/01 13:16:08;;;;;;;14.85;8.50;;;;;;;4.78;59.61;100457.59;8068218;28;20400;-62
2021/01/01 13:19:59;;;;;;;12.93;8.15;;;;;;;4.71;59.87;100452.72;8065428;28;20035;-62
2021/01/01 13:23:49;;;;;;;12.35;7.70;;;;;;;4.71;59.65;100457.06;8069833;28;20106;-63
2021/01/01 13:27:40;;;;;;;12.68;7.30;;;;;;;4.68;59.56;100452.03;8069847;28;20036;-61
2021/01/01 13:31:37;;;;;;;14.38;8.10;;;;;;;4.66;59.62;100461.66;8064187;28;20533;-62
2021/01/01 13:35:28;;;;;;;12.32;7.55;;;;;;;4.61;59.59;100469.69;8067937;28;20047;-62
2021/01/01 13:39:19;;;;;;;11.43;7.18;;;;;;;4.59;59.59;100473.28;8074373;28;20043;-61
2021/01/01 13:43:09;;;;;;;16.52;8.20;;;;;;;4.54;59.44;100476.09;8104063;28;20124;-62
2021/01/01 13:47:00;;;;;;;10.85;6.68;;;;;;;4.50;59.41;100469.34;8105753;28;20047;-62
2021/01/01 13:50:50;;;;;;;10.80;7.28;;;;;;;4.46;59.36;100469.56;8106550;28;20031;-62
2021/01/01 13:54:41;;;;;;;10.65;7.13;;;;;;;4.40;59.23;100469.88;8107020;28;20035;-60
2021/01/01 13:58:32;;;;;;;10.57;6.32;;;;;;;4.37;59.34;100470.00;8106435;28;20116;-62
2021/01/01 14:02:22;;;;;;;8.88;5.85;;;;;;;4.28;59.35;100471.25;8083678;28;20044;-65
2021/01/01 14:06:13;;;;;;;9.05;5.30;;;;;;;4.23;59.15;100481.88;8050682;28;20042;-62
2021/01/01 14:10:04;;;;;;;9.52;5.75;;;;;;;4.15;59.04;100473.56;8073857;28;20036;-62
2021/01/01 14:13:55;;;;;;;15.05;6.75;;;;;;;4.11;59.55;100474.63;8073435;28;20402;-62
2021/01/01 14:17:45;;;;;;;8.35;6.03;;;;;;;4.09;59.20;100486.03;8072704;28;20698;-62
2021/01/01 14:21:36;;;;;;;11.38;6.30;;;;;;;4.04;59.02;100483.63;8073161;28;20146;-62
2021/01/01 14:25:26;;;;;;;11.48;6.38;;;;;;;3.97;59.01;100478.78;8073613;28;20042;-62
2021/01/01 14:29:18;;;;;;;11.00;6.57;;;;;;;3.90;58.95;100465.22;8073492;28;20036;-62
2021/01/01 14:33:09;;;;;;;9.05;5.63;;;;;;;3.89;59.16;100468.72;8055938;28;20036;-61
2021/01/01 14:37:00;;;;;;;9.13;5.63;;;;;;;3.88;59.04;100487.81;8041254;28;20464;-62
2021/01/01 14:40:51;;;;;;;9.45;5.03;;;;;;;3.85;59.16;100487.97;8060191;28;20504;-62
2021/01/01 14:44:41;;;;;;;9.25;5.38;;;;;;;3.82;58.99;100482.88;8105897;28;20558;-62
2021/01/01 14:48:32;;;;;;;8.02;5.15;;;;;;;3.78;59.04;100484.78;8103529;28;20055;-65
2021/01/01 14:52:23;;;;;;;10.88;5.13;;;;;;;3.76;58.96;100490.97;8104053;28;20035;-65
2021/01/01 14:56:13;;;;;;;9.65;5.22;;;;;;;3.72;59.14;100500.66;8105028;28;20050;-68
2021/01/01 15:00:05;;;;;;;8.43;4.60;;;;;;;3.69;58.93;100494.75;8104595;28;20043;-68
2021/01/01 15:03:56;;;;;;;6.40;4.35;;;;;;;3.65;58.69;100495.78;8062581;28;20058;-67
2021/01/01 15:07:46;;;;;;;8.20;4.78;;;;;;;3.61;58.87;100502.84;8072095;28;20049;-70
2021/01/01 15:11:37;;;;;;;9.30;4.72;;;;;;;3.58;58.87;100507.34;8072179;28;20032;-70
2021/01/01 15:15:28;;;;;;;6.18;4.43;;;;;;;3.53;58.79;100510.13;8071075;28;20036;-68
2021/01/01 15:19:18;;;;;;;8.63;4.85;;;;;;;3.50;59.02;100512.00;8071598;28;20051;-69
2021/01/01 15:23:09;;;;;;;7.55;4.55;;;;;;;3.46;58.71;100520.84;8068139;28;20038;-69
2021/01/01 15:27:00;;;;;;;5.47;3.75;;;;;;;3.39;58.76;100519.41;8071950;28;20567;-72
2021/01/01 15:30:50;;;;;;;6.60;4.40;;;;;;;3.39;58.83;100529.81;8070262;28;20050;-68
2021/01/01 15:34:41;;;;;;;6.85;4.18;;;;;;;3.33;58.85;100526.56;8046047;28;20467;-70
2021/01/01 15:38:32;;;;;;;8.15;4.20;;;;;;;3.30;58.92;100533.63;8038585;28;20783;-67
2021/01/01 15:42:22;;;;;;;5.50;3.55;;;;;;;3.27;58.84;100538.91;8084171;28;20035;-68
2021/01/01 15:46:14;;;;;;;6.28;4.10;;;;;;;3.22;58.87;100541.69;8101933;28;20399;-68
2021/01/01 15:50:05;;;;;;;8.60;4.65;;;;;;;3.18;58.53;100542.72;8103111;28;20036;-68
2021/01/01 15:53:58;;;;;;;7.45;4.95;;;;;;;3.12;58.83;100545.56;8103145;28;20031;-69
2021/01/01 15:57:48;;;;;;;12.93;7.50;;;;;;;3.11;58.80;100550.84;8103302;28;20043;-67
2021/01/01 16:01:39;;;;;;;18.10;8.73;;;;;;;3.08;58.67;100556.13;8091727;28;20044;-67
2021/01/01 16:05:30;;;;;;;13.63;7.18;;;;;;;3.04;58.49;100557.16;8038399;28;20415;-68
2021/01/01 16:09:20;;;;;;;10.30;5.70;;;;;;;2.99;58.67;100559.97;8038177;28;20849;-68
2021/01/01 16:13:11;;;;;;;8.40;5.47;;;;;;;2.96;58.52;100564.41;8038439;28;20105;-70
2021/01/01 16:17:01;;;;;;;9.25;5.93;;;;;;;2.92;58.27;100557.66;8037286;28;20619;-67
2021/01/01 16:20:52;;;;;;;10.90;6.40;;;;;;;2.90;58.27;100557.72;8037455;28;20036;-67
2021/01/01 16:24:43;;;;;;;10.05;6.13;;;;;;;2.87;58.88;100563.84;8037837;28;20033;-67
2021/01/01 16:28:33;;;;;;;11.73;7.03;;;;;;;2.87;58.53;100560.41;8037870;28;20035;-67
2021/01/01 16:32:24;;;;;;;11.18;6.47;;;;;;;2.86;58.80;100562.19;8037636;28;20032;-66
2021/01/01 16:36:27;;;;;;;10.15;6.68;;;;;;;2.83;59.03;100556.25;8037168;28;20077;-68
2021/01/01 16:40:17;;;;;;;12.18;6.57;;;;;;;2.91;58.92;100571.53;8047304;28;20534;-68
2021/01/01 16:44:13;;;;;;;10.90;7.30;;;;;;;2.93;59.03;100564.53;8101996;28;20093;-67
2021/01/01 16:48:06;;;;;;;11.23;6.28;;;;;;;2.97;58.83;100571.28;8100351;28;20043;-68
2021/01/01 16:51:56;;;;;;;10.07;6.90;;;;;;;3.00;58.73;100577.19;8088930;28;20093;-67
2021/01/01 16:55:47;;;;;;;16.55;8.20;;;;;;;3.05;58.79;100575.28;8067216;28;20042;-67
2021/01/01 16:59:38;;;;;;;11.75;7.95;;;;;;;3.07;58.72;100577.81;8067603;28;20040;-67
2021/01/01 17:03:28;;;;;;;13.60;8.80;;;;;;;3.09;58.86;100573.41;8046438;28;20450;-67
2021/01/01 17:07:19;;;;;;;13.02;7.18;;;;;;;3.12;58.94;100583.66;8037067;28;20036;-67
2021/01/01 17:11:10;;;;;;;13.93;7.97;;;;;;;3.08;59.03;100569.94;8039410;28;20079;-67
2021/01/01 17:15:01;;;;;;;11.88;8.30;;;;;;;3.16;59.25;100582.63;8043300;28;20106;-67
2021/01/01 17:18:54;;;;;;;17.63;9.18;;;;;;;3.19;59.26;100585.13;8041884;28;20203;-67
2021/01/01 17:22:44;;;;;;;11.90;8.35;;;;;;;3.20;59.16;100590.22;8045775;28;20118;-67
2021/01/01 17:26:35;;;;;;;15.82;9.15;;;;;;;3.22;59.00;100591.03;8043505;28;20426;-67
2021/01/01 17:30:26;;;;;;;14.55;9.98;;;;;;;3.24;59.30;100590.97;8041101;28;20067;-67
2021/01/01 17:34:17;;;;;;;15.00;9.95;;;;;;;3.22;59.05;100591.03;8043785;28;20093;-67
2021/01/01 17:38:07;;;;;;;16.45;10.32;;;;;;;3.21;59.10;100597.13;8047777;28;20040;-67
2021/01/01 17:41:59;;;;;;;18.23;10.07;;;;;;;3.16;59.06;100588.66;8079576;28;20357;-67
2021/01/01 17:45:50;;;;;;;16.77;9.90;;;;;;;3.18;58.92;100599.00;8066826;28;20032;-67
2021/01/01 17:49:40;;;;;;;14.13;9.35;;;;;;;3.14;59.10;100606.06;8067567;28;20036;-67
2021/01/01 17:53:34;;;;;;;15.75;9.68;;;;;;;3.10;58.99;100604.50;8074495;28;20028;-67
2021/01/01 17:57:25;;;;;;;14.68;9.75;;;;;;;3.09;58.80;100607.97;8074113;28;20036;-67
2021/01/01 18:01:16;;;;;;;17.20;10.05;;;;;;;3.05;58.90;100606.41;8072479;28;20058;-67
2021/01/01 18:05:07;;;;;;;15.38;10.30;;;;;;;3.07;59.24;100607.22;8073697;28;20032;-62
2021/01/01 18:08:58;;;;;;;14.50;9.57;;;;;;;3.08;59.25;100615.81;8074037;28;20079;-62
2021/01/01 18:12:48;;;;;;;15.38;9.77;;;;;;;3.09;59.25;100617.53;8073978;28;20097;-64
2021/01/01 18:16:39;;;;;;;14.93;9.45;;;;;;;3.08;59.18;100621.84;8072607;28;20040;-63
2021/01/01 18:20:30;;;;;;;16.30;10.52;;;;;;;3.09;59.36;100620.13;8073792;28;20040;-62
2021/01/01 18:24:21;;;;;;;15.63;10.15;;;;;;;3.07;59.57;100622.78;8073118;28;20035;-62
2021/01/01 18:28:14;;;;;;;15.90;11.00;;;;;;;3.05;58.83;100619.41;8073551;28;20541;-65
2021/01/01 18:32:05;;;;;;;14.65;9.60;;;;;;;3.02;59.07;100623.84;8069051;28;20037;-65
2021/01/01 18:36:02;;;;;;;14.38;9.95;;;;;;;3.01;59.06;100625.59;8040645;28;20044;-64
2021/01/01 18:39:53;;;;;;;15.47;9.17;;;;;;;3.01;59.17;100630.81;8043743;28;20125;-69
2021/01/01 18:43:48;;;;;;;13.93;9.60;;;;;;;3.03;59.03;100631.59;8105184;28;20027;-68
2021/01/01 18:47:39;;;;;;;14.43;9.32;;;;;;;3.04;59.40;100635.00;8103614;28;20035;-68
2021/01/01 18:51:30;;;;;;;15.45;10.63;;;;;;;3.02;59.08;100636.84;8104299;28;20041;-67
2021/01/01 18:55:22;;;;;;;21.83;11.32;;;;;;;3.00;59.15;100649.84;8053780;28;20044;-68
2021/01/01 18:59:42;;;;;;;18.85;10.73;;;;;;;2.95;59.23;100649.19;8040383;28;20044;-69
2021/01/01 19:03:53;;;;;;;15.80;10.30;;;;;;;2.90;58.88;100648.53;8059212;28;20040;-67